createdAt,value
2018-12-09T00:00:31.622Z,19.75
2018-12-09T00:01:31.417Z,19.75
2018-12-09T00:02:31.881Z,19.75
2018-12-09T00:03:31.640Z,19.75
2018-12-09T00:04:31.490Z,19.75
2018-12-09T00:05:31.673Z,19.75
2018-12-09T00:06:31.812Z,19.75
2018-12-09T00:07:31.552Z,19.75
2018-12-09T00:08:31.512Z,19.75
2018-12-09T00:09:31.896Z,19.75
2018-12-09T00:10:31.679Z,19.75
2018-12-09T00:11:31.526Z,19.75
2018-12-09T00:12:31.685Z,19.75
2018-12-09T00:13:31.566Z,19.75
2018-12-09T00:14:31.591Z,19.75
2018-12-09T00:15:31.454Z,19.75
2018-12-09T00:16:31.852Z,19.75
2018-12-09T00:17:31.793Z,19.75
2018-12-09T00:18:31.807Z,19.75
2018-12-09T00:19:31.993Z,19.75
2018-12-09T00:20:31.941Z,19.75
2018-12-09T00:21:31.767Z,19.75
2018-12-09T00:22:31.482Z,19.75
2018-12-09T00:23:31.514Z,19.75
2018-12-09T00:24:31.585Z,19.75
2018-12-09T00:25:31.763Z,19.75
2018-12-09T00:26:31.379Z,19.75
2018-12-09T00:27:31.775Z,19.75
2018-12-09T00:28:31.859Z,19.75
2018-12-09T00:29:31.681Z,19.75
2018-12-09T00:30:31.473Z,19.75
2018-12-09T00:31:32.040Z,19.75
2018-12-09T00:32:31.893Z,19.75
2018-12-09T00:33:31.696Z,19.75
2018-12-09T00:34:31.539Z,19.75
2018-12-09T00:35:31.719Z,19.75
2018-12-09T00:36:31.994Z,19.75
2018-12-09T00:37:32.036Z,19.75
2018-12-09T00:38:31.711Z,19.75
2018-12-09T00:39:31.731Z,19.75
2018-12-09T00:40:31.843Z,19.75
2018-12-09T00:41:31.641Z,19.75
2018-12-09T00:42:31.564Z,19.75
2018-12-09T00:43:31.957Z,19.75
2018-12-09T00:44:31.765Z,19.75
2018-12-09T00:45:31.971Z,19.75
2018-12-09T00:46:32.088Z,19.75
2018-12-09T00:47:31.720Z,19.75
2018-12-09T00:48:31.395Z,19.75
2018-12-09T00:49:31.603Z,19.75
2018-12-09T00:50:31.530Z,19.75
2018-12-09T00:51:31.604Z,19.75
2018-12-09T00:52:31.539Z,19.75
2018-12-09T00:53:31.316Z,19.75
2018-12-09T00:54:31.808Z,19.75
2018-12-09T00:55:31.464Z,19.75
2018-12-09T00:56:31.659Z,19.75
2018-12-09T00:57:31.626Z,19.75
2018-12-09T00:58:31.706Z,19.75
2018-12-09T00:59:31.782Z,19.75
2018-12-09T01:00:31.670Z,19.75
2018-12-09T01:01:32.246Z,19.75
2018-12-09T01:02:31.563Z,19.75
2018-12-09T01:03:31.673Z,19.75
2018-12-09T01:04:31.717Z,19.75
2018-12-09T01:05:31.620Z,19.75
2018-12-09T01:06:31.870Z,19.75
2018-12-09T01:07:32.045Z,19.75
2018-12-09T01:08:32.360Z,19.75
2018-12-09T01:09:31.464Z,19.75
2018-12-09T01:10:31.963Z,19.75
2018-12-09T01:11:31.611Z,19.75
2018-12-09T01:12:31.933Z,19.75
2018-12-09T01:13:31.608Z,19.75
2018-12-09T01:14:31.598Z,19.75
2018-12-09T01:15:31.872Z,19.75
2018-12-09T01:16:31.341Z,19.75
2018-12-09T01:17:31.821Z,19.75
2018-12-09T01:18:31.972Z,19.75
2018-12-09T01:19:32.014Z,19.75
2018-12-09T01:20:31.539Z,19.5
2018-12-09T01:21:31.823Z,19.75
2018-12-09T01:22:31.784Z,19.5
2018-12-09T01:23:31.869Z,19.5
2018-12-09T01:24:31.382Z,19.5
2018-12-09T01:25:31.775Z,19.75
2018-12-09T01:26:31.699Z,19.5
2018-12-09T01:27:31.834Z,19.5
2018-12-09T01:28:31.629Z,19.5
2018-12-09T01:29:32.732Z,19.5
2018-12-09T01:30:31.649Z,19.5
2018-12-09T01:31:31.702Z,19.5
2018-12-09T01:32:31.933Z,19.5
2018-12-09T01:33:31.602Z,19.5
2018-12-09T01:34:31.399Z,19.5
2018-12-09T01:35:31.693Z,19.5
2018-12-09T01:36:31.993Z,19.5
2018-12-09T01:37:31.512Z,19.5
2018-12-09T01:38:31.387Z,19.5
2018-12-09T01:39:31.883Z,19.5
2018-12-09T01:40:31.887Z,19.5
2018-12-09T01:41:31.429Z,19.5
2018-12-09T01:42:31.755Z,19.5
2018-12-09T01:43:32.276Z,19.5
2018-12-09T01:44:31.562Z,19.5
2018-12-09T01:45:31.336Z,19.5
2018-12-09T01:46:31.828Z,19.5
2018-12-09T01:47:31.615Z,19.5
2018-12-09T01:48:32.356Z,19.5
2018-12-09T01:49:32.029Z,19.5
2018-12-09T01:50:31.478Z,19.5
2018-12-09T01:51:31.642Z,19.5
2018-12-09T01:52:31.419Z,19.5
2018-12-09T01:53:31.772Z,19.5
2018-12-09T01:54:31.609Z,19.5
2018-12-09T01:55:31.885Z,19.5
2018-12-09T01:56:31.899Z,19.5
2018-12-09T01:57:31.867Z,19.5
2018-12-09T01:58:32.941Z,19.5
2018-12-09T01:59:31.737Z,19.5
2018-12-09T02:00:31.489Z,19.5
2018-12-09T02:01:31.387Z,19.5
2018-12-09T02:02:31.432Z,19.5
2018-12-09T02:03:31.574Z,19.5
2018-12-09T02:04:31.771Z,19.5
2018-12-09T02:05:31.964Z,19.5
2018-12-09T02:06:31.834Z,19.5
2018-12-09T02:07:31.864Z,19.5
2018-12-09T02:08:32.806Z,19.5
2018-12-09T02:09:31.704Z,19.5
2018-12-09T02:10:32.318Z,19.5
2018-12-09T02:11:31.375Z,19.5
2018-12-09T02:12:31.811Z,19.5
2018-12-09T02:13:31.630Z,19.5
2018-12-09T02:14:31.506Z,19.5
2018-12-09T02:15:31.619Z,19.5
2018-12-09T02:16:31.292Z,19.5
2018-12-09T02:17:31.748Z,19.5
2018-12-09T02:18:32.471Z,19.5
2018-12-09T02:19:31.953Z,19.5
2018-12-09T02:20:31.795Z,19.5
2018-12-09T02:21:31.516Z,19.5
2018-12-09T02:22:31.523Z,19.5
2018-12-09T02:23:32.430Z,19.5
2018-12-09T02:24:31.551Z,19.5
2018-12-09T02:25:31.680Z,19.5
2018-12-09T02:26:31.421Z,19.5
2018-12-09T02:27:31.775Z,19.5
2018-12-09T02:28:32.641Z,19.5
2018-12-09T02:29:31.935Z,19.5
2018-12-09T02:30:31.888Z,19.5
2018-12-09T02:31:31.541Z,19.5
2018-12-09T02:32:31.609Z,19.5
2018-12-09T02:33:31.428Z,19.5
2018-12-09T02:34:31.764Z,19.5
2018-12-09T02:35:31.611Z,19.5
2018-12-09T02:36:31.806Z,19.5
2018-12-09T02:37:31.472Z,19.5
2018-12-09T02:38:32.409Z,19.5
2018-12-09T02:39:31.764Z,19.5
2018-12-09T02:40:31.403Z,19.5
2018-12-09T02:41:31.817Z,19.5
2018-12-09T02:42:31.453Z,19.5
2018-12-09T02:43:31.765Z,19.5
2018-12-09T02:44:31.408Z,19.5
2018-12-09T02:45:31.545Z,19.5
2018-12-09T02:46:31.459Z,19.5
2018-12-09T02:47:31.572Z,19.5
2018-12-09T02:48:31.595Z,19.5
2018-12-09T02:49:31.449Z,19.5
2018-12-09T02:50:31.980Z,19.5
2018-12-09T02:51:31.656Z,19.5
2018-12-09T02:52:32.092Z,19.5
2018-12-09T02:53:31.937Z,19.5
2018-12-09T02:54:31.852Z,19.5
2018-12-09T02:55:31.299Z,19.5
2018-12-09T02:56:31.841Z,19.5
2018-12-09T02:57:32.368Z,19.5
2018-12-09T02:58:32.239Z,19.5
2018-12-09T02:59:32.091Z,19.5
2018-12-09T03:00:32.019Z,19.5
2018-12-09T03:01:32.041Z,19.5
2018-12-09T03:02:31.680Z,19.5
2018-12-09T03:03:31.528Z,19.5
2018-12-09T03:04:31.345Z,19.25
2018-12-09T03:05:31.529Z,19.5
2018-12-09T03:06:31.967Z,19.5
2018-12-09T03:07:32.411Z,19.5
2018-12-09T03:08:31.447Z,19.5
2018-12-09T03:09:31.868Z,19.25
2018-12-09T03:10:31.711Z,19.5
2018-12-09T03:11:31.502Z,19.25
2018-12-09T03:12:31.376Z,19.5
2018-12-09T03:13:31.660Z,19.25
2018-12-09T03:14:32.140Z,19.25
2018-12-09T03:15:31.395Z,19.25
2018-12-09T03:16:32.066Z,19.25
2018-12-09T03:17:32.892Z,19.5
2018-12-09T03:18:31.772Z,19.25
2018-12-09T03:19:31.780Z,19.25
2018-12-09T03:20:31.399Z,19.25
2018-12-09T03:21:31.807Z,19.25
2018-12-09T03:22:31.690Z,19.25
2018-12-09T03:23:31.980Z,19.25
2018-12-09T03:24:31.364Z,19.25
2018-12-09T03:25:31.546Z,19.25
2018-12-09T03:26:32.545Z,19.25
2018-12-09T03:27:31.740Z,19.25
2018-12-09T03:28:31.838Z,19.25
2018-12-09T03:29:31.372Z,19.25
2018-12-09T03:30:31.943Z,19.25
2018-12-09T03:31:31.517Z,19.25
2018-12-09T03:32:31.511Z,19.25
2018-12-09T03:33:32.004Z,19.25
2018-12-09T03:34:31.486Z,19.25
2018-12-09T03:35:31.524Z,19.25
2018-12-09T03:36:32.412Z,19.25
2018-12-09T03:37:31.843Z,19.25
2018-12-09T03:38:31.832Z,19.25
2018-12-09T03:39:31.515Z,19.25
2018-12-09T03:40:31.310Z,19.25
2018-12-09T03:41:31.517Z,19.25
2018-12-09T03:42:31.622Z,19.25
2018-12-09T03:43:31.479Z,19.25
2018-12-09T03:44:32.075Z,19.25
2018-12-09T03:45:31.929Z,19.25
2018-12-09T03:46:31.574Z,19.25
2018-12-09T03:47:31.766Z,19.25
2018-12-09T03:48:31.768Z,19.25
2018-12-09T03:49:31.801Z,19.25
2018-12-09T03:50:31.403Z,19.25
2018-12-09T03:51:31.768Z,19.25
2018-12-09T03:52:31.602Z,19.25
2018-12-09T03:53:31.738Z,19.25
2018-12-09T03:54:31.902Z,19.25
2018-12-09T03:55:32.549Z,19.25
2018-12-09T03:56:31.904Z,19.25
2018-12-09T03:57:31.521Z,19.25
2018-12-09T03:58:31.451Z,19.25
2018-12-09T03:59:31.411Z,19.25
2018-12-09T04:00:31.586Z,19.25
2018-12-09T04:01:31.976Z,19.25
2018-12-09T04:02:31.417Z,19.25
2018-12-09T04:03:31.517Z,19.25
2018-12-09T04:04:32.206Z,19.25
2018-12-09T04:05:31.704Z,19.25
2018-12-09T04:06:31.425Z,19.25
2018-12-09T04:07:31.576Z,19.25
2018-12-09T04:08:31.302Z,19.25
2018-12-09T04:09:31.537Z,19.25
2018-12-09T04:10:31.572Z,19.25
2018-12-09T04:11:31.392Z,19.25
2018-12-09T04:12:32.063Z,19.25
2018-12-09T04:13:31.606Z,19.25
2018-12-09T04:14:32.585Z,19.25
2018-12-09T04:15:31.621Z,19.25
2018-12-09T04:16:31.924Z,19.25
2018-12-09T04:17:31.585Z,19.25
2018-12-09T04:18:31.476Z,19.25
2018-12-09T04:19:31.598Z,19.25
2018-12-09T04:20:31.382Z,19.25
2018-12-09T04:21:31.531Z,19.25
2018-12-09T04:22:32.129Z,19.25
2018-12-09T04:23:33.058Z,19.25
2018-12-09T04:24:31.933Z,19.25
2018-12-09T04:25:31.522Z,19.25
2018-12-09T04:26:32.261Z,19.25
2018-12-09T04:27:31.682Z,19.25
2018-12-09T04:28:31.766Z,19.25
2018-12-09T04:29:32.129Z,19.25
2018-12-09T04:30:31.506Z,19.25
2018-12-09T04:31:31.529Z,19.25
2018-12-09T04:32:31.790Z,19.25
2018-12-09T04:33:31.486Z,19.25
2018-12-09T04:34:31.606Z,19.25
2018-12-09T04:35:31.455Z,19.25
2018-12-09T04:36:31.890Z,19.25
2018-12-09T04:37:31.521Z,19.25
2018-12-09T04:38:32.025Z,19.25
2018-12-09T04:39:31.465Z,19.25
2018-12-09T04:40:31.689Z,19.25
2018-12-09T04:41:31.427Z,19.25
2018-12-09T04:42:32.786Z,19.25
2018-12-09T04:43:31.315Z,19.25
2018-12-09T04:44:31.441Z,19.25
2018-12-09T04:45:31.492Z,19.25
2018-12-09T04:46:31.854Z,19.25
2018-12-09T04:47:31.992Z,19.25
2018-12-09T04:48:31.453Z,19.25
2018-12-09T04:49:31.446Z,19.25
2018-12-09T04:50:31.705Z,19.25
2018-12-09T04:51:31.365Z,19.25
2018-12-09T04:52:32.958Z,19.25
2018-12-09T04:53:31.303Z,19.25
2018-12-09T04:54:31.406Z,19.25
2018-12-09T04:55:31.644Z,19.25
2018-12-09T04:56:31.493Z,19.25
2018-12-09T04:57:31.585Z,19.25
2018-12-09T04:58:31.702Z,19.25
2018-12-09T04:59:31.419Z,19.25
2018-12-09T05:00:31.276Z,19.25
2018-12-09T05:01:32.101Z,19.25
2018-12-09T05:02:31.330Z,19.25
2018-12-09T05:03:31.530Z,19.25
2018-12-09T05:04:31.772Z,19.25
2018-12-09T05:05:31.512Z,19.25
2018-12-09T05:06:31.574Z,19.25
2018-12-09T05:07:31.789Z,19.25
2018-12-09T05:08:31.708Z,19.25
2018-12-09T05:09:31.799Z,19.5
2018-12-09T05:10:31.450Z,19.5
2018-12-09T05:11:31.957Z,19.5
2018-12-09T05:12:31.728Z,19.5
2018-12-09T05:13:31.952Z,19.5
2018-12-09T05:14:31.870Z,19.5
2018-12-09T05:15:31.856Z,19.5
2018-12-09T05:16:31.659Z,19.5
2018-12-09T05:17:31.501Z,19.5
2018-12-09T05:18:31.880Z,19.5
2018-12-09T05:19:31.448Z,19.5
2018-12-09T05:20:32.445Z,19.5
2018-12-09T05:21:31.400Z,19.5
2018-12-09T05:22:31.484Z,19.5
2018-12-09T05:23:31.864Z,19.5
2018-12-09T05:24:31.688Z,19.5
2018-12-09T05:25:31.647Z,19.5
2018-12-09T05:26:31.771Z,19.5
2018-12-09T05:27:31.448Z,19.5
2018-12-09T05:28:31.256Z,19.75
2018-12-09T05:29:32.204Z,19.5
2018-12-09T05:30:31.871Z,19.75
2018-12-09T05:31:31.541Z,19.75
2018-12-09T05:32:31.744Z,19.75
2018-12-09T05:33:31.391Z,19.75
2018-12-09T05:34:31.546Z,19.75
2018-12-09T05:35:31.340Z,19.75
2018-12-09T05:36:31.600Z,19.75
2018-12-09T05:37:32.189Z,19.75
2018-12-09T05:38:31.627Z,19.75
2018-12-09T05:39:31.321Z,19.75
2018-12-09T05:40:31.515Z,19.75
2018-12-09T05:41:31.467Z,19.75
2018-12-09T05:42:31.396Z,19.75
2018-12-09T05:43:32.172Z,19.75
2018-12-09T05:44:31.669Z,19.75
2018-12-09T05:45:31.447Z,19.75
2018-12-09T05:46:31.423Z,19.75
2018-12-09T05:47:31.502Z,19.75
2018-12-09T05:48:32.545Z,19.75
2018-12-09T05:49:31.302Z,19.75
2018-12-09T05:50:31.574Z,19.75
2018-12-09T05:51:31.423Z,19.75
2018-12-09T05:52:31.864Z,19.75
2018-12-09T05:53:31.322Z,19.75
2018-12-09T05:54:31.658Z,19.75
2018-12-09T05:55:31.420Z,20
2018-12-09T05:56:31.293Z,19.75
2018-12-09T05:57:33.020Z,20
2018-12-09T05:58:31.363Z,20
2018-12-09T05:59:31.888Z,20
2018-12-09T06:00:31.500Z,20
2018-12-09T06:01:31.483Z,20
2018-12-09T06:02:31.864Z,20
2018-12-09T06:03:31.329Z,20
2018-12-09T06:04:31.734Z,20
2018-12-09T06:05:31.618Z,20
2018-12-09T06:06:32.468Z,20
2018-12-09T06:07:31.673Z,20
2018-12-09T06:08:31.507Z,20
2018-12-09T06:09:31.487Z,20
2018-12-09T06:10:31.406Z,20
2018-12-09T06:11:31.938Z,20
2018-12-09T06:12:31.332Z,20
2018-12-09T06:13:31.266Z,20
2018-12-09T06:14:31.700Z,20
2018-12-09T06:15:31.492Z,20
2018-12-09T06:16:31.317Z,20
2018-12-09T06:17:31.829Z,20
2018-12-09T06:18:31.511Z,20
2018-12-09T06:19:31.308Z,20
2018-12-09T06:20:31.864Z,20
2018-12-09T06:21:31.240Z,20
2018-12-09T06:22:31.557Z,20
2018-12-09T06:23:31.619Z,20
2018-12-09T06:24:31.431Z,20
2018-12-09T06:25:32.911Z,20
2018-12-09T06:26:31.773Z,20
2018-12-09T06:27:31.766Z,20
2018-12-09T06:28:31.250Z,20
2018-12-09T06:29:32.101Z,20
2018-12-09T06:30:31.381Z,20
2018-12-09T06:31:31.589Z,20
2018-12-09T06:32:31.522Z,20
2018-12-09T06:33:31.554Z,20
2018-12-09T06:34:32.572Z,20
2018-12-09T06:35:31.333Z,20
2018-12-09T06:36:31.749Z,20
2018-12-09T06:37:31.767Z,20
2018-12-09T06:38:31.747Z,20
2018-12-09T06:39:31.800Z,20
2018-12-09T06:40:31.867Z,20
2018-12-09T06:41:31.471Z,20
2018-12-09T06:42:31.916Z,20.25
2018-12-09T06:43:31.759Z,20
2018-12-09T06:44:31.712Z,20
2018-12-09T06:45:31.679Z,20.25
2018-12-09T06:46:31.530Z,20
2018-12-09T06:47:31.742Z,20.25
2018-12-09T06:48:31.811Z,20.25
2018-12-09T06:49:31.463Z,20.25
2018-12-09T06:50:31.867Z,20.25
2018-12-09T06:51:32.028Z,20.25
2018-12-09T06:52:31.416Z,20.25
2018-12-09T06:53:31.855Z,20.25
2018-12-09T06:54:31.418Z,20.25
2018-12-09T06:55:31.640Z,20.25
2018-12-09T06:56:31.274Z,20.25
2018-12-09T06:57:31.920Z,20.25
2018-12-09T06:58:31.630Z,20.25
2018-12-09T06:59:31.828Z,20.25
2018-12-09T07:00:31.632Z,20.25
2018-12-09T07:01:32.358Z,20.25
2018-12-09T07:02:31.749Z,20.25
2018-12-09T07:03:31.624Z,20.25
2018-12-09T07:04:31.580Z,20.25
2018-12-09T07:05:31.446Z,20.25
2018-12-09T07:06:31.670Z,20.25
2018-12-09T07:07:31.424Z,20.25
2018-12-09T07:08:31.608Z,20.25
2018-12-09T07:09:31.447Z,20.25
2018-12-09T07:10:33.445Z,20.25
2018-12-09T07:11:31.511Z,20.25
2018-12-09T07:12:31.206Z,20.25
2018-12-09T07:13:31.615Z,20.25
2018-12-09T07:14:31.837Z,20.25
2018-12-09T07:15:31.416Z,20.25
2018-12-09T07:16:31.265Z,20.25
2018-12-09T07:17:31.412Z,20.25
2018-12-09T07:18:31.912Z,20.25
2018-12-09T07:19:32.281Z,20.25
2018-12-09T07:20:31.519Z,20.25
2018-12-09T07:21:31.230Z,20.25
2018-12-09T07:22:31.475Z,20.25
2018-12-09T07:23:31.458Z,20.25
2018-12-09T07:24:31.324Z,20.25
2018-12-09T07:25:31.295Z,20.25
2018-12-09T07:26:31.795Z,20.25
2018-12-09T07:27:31.421Z,20.25
2018-12-09T07:28:31.936Z,20.25
2018-12-09T07:29:31.483Z,20.25
2018-12-09T07:30:31.230Z,20.25
2018-12-09T07:31:31.712Z,20.25
2018-12-09T07:32:32.045Z,20.25
2018-12-09T07:33:31.364Z,20.25
2018-12-09T07:34:31.364Z,20.25
2018-12-09T07:35:31.248Z,20.25
2018-12-09T07:36:31.397Z,20.5
2018-12-09T07:37:31.541Z,20.25
2018-12-09T07:38:31.565Z,20.5
2018-12-09T07:39:31.863Z,20.5
2018-12-09T07:40:31.810Z,20.5
2018-12-09T07:41:31.669Z,20.5
2018-12-09T07:42:31.152Z,20.25
2018-12-09T07:43:31.223Z,20.5
2018-12-09T07:44:31.847Z,20.5
2018-12-09T07:45:31.307Z,20.5
2018-12-09T07:46:31.625Z,20.5
2018-12-09T07:47:31.458Z,20.5
2018-12-09T07:48:31.666Z,20.5
2018-12-09T07:49:31.267Z,20.5
2018-12-09T07:50:31.470Z,20.5
2018-12-09T07:51:31.444Z,20.5
2018-12-09T07:52:31.155Z,20.5
2018-12-09T07:53:31.766Z,20.5
2018-12-09T07:54:31.368Z,20.5
2018-12-09T07:55:31.398Z,20.5
2018-12-09T07:56:31.596Z,20.5
2018-12-09T07:57:31.728Z,20.5
2018-12-09T07:58:31.341Z,20.5
2018-12-09T07:59:31.330Z,20.5
2018-12-09T08:00:31.733Z,20.5
2018-12-09T08:01:31.727Z,20.5
2018-12-09T08:02:31.582Z,20.5
2018-12-09T08:03:31.284Z,20.5
2018-12-09T08:04:31.439Z,20.5
2018-12-09T08:05:31.681Z,20.5
2018-12-09T08:06:31.254Z,20.5
2018-12-09T08:07:31.253Z,20.5
2018-12-09T08:08:31.430Z,20.5
2018-12-09T08:09:31.971Z,20.5
2018-12-09T08:10:31.328Z,20.5
2018-12-09T08:11:31.746Z,20.5
2018-12-09T08:12:31.315Z,20.5
2018-12-09T08:13:31.371Z,20.5
2018-12-09T08:14:31.249Z,20.5
2018-12-09T08:15:32.299Z,20.5
2018-12-09T08:16:31.302Z,20.5
2018-12-09T08:17:31.451Z,20.5
2018-12-09T08:18:31.819Z,20.5
2018-12-09T08:19:31.653Z,20.5
2018-12-09T08:20:31.427Z,20.5
2018-12-09T08:21:31.272Z,20.5
2018-12-09T08:22:31.958Z,20.5
2018-12-09T08:23:31.309Z,20.5
2018-12-09T08:24:31.481Z,20.5
2018-12-09T08:25:31.197Z,20.5
2018-12-09T08:26:31.802Z,20.5
2018-12-09T08:27:31.545Z,20.5
2018-12-09T08:28:31.283Z,20.5
2018-12-09T08:29:31.510Z,20.5
2018-12-09T08:30:31.503Z,20.5
2018-12-09T08:31:31.528Z,20.5
2018-12-09T08:32:31.516Z,20.5
2018-12-09T08:33:31.748Z,20.5
2018-12-09T08:34:31.690Z,20.5
2018-12-09T08:35:31.728Z,20.5
2018-12-09T08:36:31.665Z,20.5
2018-12-09T08:37:32.140Z,20.5
2018-12-09T08:38:31.702Z,20.5
2018-12-09T08:39:31.465Z,20.5
2018-12-09T08:40:31.770Z,20.5
2018-12-09T08:41:31.745Z,20.5
2018-12-09T08:42:31.278Z,20.5
2018-12-09T08:43:31.442Z,20.5
2018-12-09T08:44:31.398Z,20.5
2018-12-09T08:45:31.436Z,20.5
2018-12-09T08:46:31.674Z,20.5
2018-12-09T08:47:31.388Z,20.5
2018-12-09T08:48:31.662Z,20.5
2018-12-09T08:49:31.322Z,20.5
2018-12-09T08:50:31.509Z,20.5
2018-12-09T08:51:31.552Z,20.5
2018-12-09T08:52:31.968Z,20.5
2018-12-09T08:53:31.609Z,20.75
2018-12-09T08:54:31.480Z,20.5
2018-12-09T08:55:31.199Z,20.75
2018-12-09T08:56:31.396Z,20.75
2018-12-09T08:57:31.430Z,20.75
2018-12-09T08:58:31.306Z,20.75
2018-12-09T08:59:31.357Z,20.75
2018-12-09T09:00:31.202Z,20.75
2018-12-09T09:01:31.445Z,20.75
2018-12-09T09:02:31.318Z,20.75
2018-12-09T09:03:31.408Z,20.75
2018-12-09T09:04:32.572Z,20.75
2018-12-09T09:05:31.294Z,20.75
2018-12-09T09:06:31.377Z,20.75
2018-12-09T09:07:31.256Z,20.75
2018-12-09T09:08:31.421Z,20.75
2018-12-09T09:09:31.249Z,20.75
2018-12-09T09:10:31.319Z,20.75
2018-12-09T09:11:31.703Z,20.75
2018-12-09T09:12:31.261Z,20.75
2018-12-09T09:13:31.344Z,20.75
2018-12-09T09:14:31.234Z,20.75
2018-12-09T09:15:31.858Z,20.75
2018-12-09T09:16:31.415Z,20.75
2018-12-09T09:17:31.300Z,21
2018-12-09T09:18:31.434Z,21
2018-12-09T09:19:31.303Z,21
2018-12-09T09:20:31.512Z,21
2018-12-09T09:21:31.264Z,21
2018-12-09T09:22:31.247Z,21
2018-12-09T09:23:31.366Z,21
2018-12-09T09:24:31.891Z,21
2018-12-09T09:25:31.504Z,21
2018-12-09T09:26:31.402Z,21
2018-12-09T09:27:31.944Z,21
2018-12-09T09:28:31.267Z,21
2018-12-09T09:29:32.258Z,21
2018-12-09T09:30:31.782Z,21
2018-12-09T09:31:31.282Z,21
2018-12-09T09:32:31.741Z,21
2018-12-09T09:33:31.337Z,21
2018-12-09T09:34:31.377Z,21
2018-12-09T09:35:31.496Z,21
2018-12-09T09:36:31.332Z,21
2018-12-09T09:37:31.722Z,21
2018-12-09T09:38:31.307Z,21
2018-12-09T09:39:31.484Z,21
2018-12-09T09:40:31.694Z,21
2018-12-09T09:41:31.384Z,21
2018-12-09T09:42:31.288Z,21
2018-12-09T09:43:31.440Z,21
2018-12-09T09:44:31.151Z,21
2018-12-09T09:45:31.221Z,21
2018-12-09T09:46:31.339Z,21
2018-12-09T09:47:31.315Z,21
2018-12-09T09:48:31.686Z,21
2018-12-09T09:49:31.679Z,21
2018-12-09T09:50:31.713Z,21
2018-12-09T09:51:31.288Z,21
2018-12-09T09:52:31.457Z,21
2018-12-09T09:53:31.947Z,21
2018-12-09T09:54:31.309Z,21
2018-12-09T09:55:31.766Z,21
2018-12-09T09:56:31.445Z,21
2018-12-09T09:57:31.728Z,21
2018-12-09T09:58:31.355Z,21
2018-12-09T09:59:31.638Z,21
2018-12-09T10:00:31.291Z,21
2018-12-09T10:01:31.826Z,21
2018-12-09T10:02:31.393Z,21
2018-12-09T10:03:31.189Z,21
2018-12-09T10:04:31.737Z,21
2018-12-09T10:05:31.356Z,21
2018-12-09T10:06:31.501Z,21
2018-12-09T10:07:31.172Z,21
2018-12-09T10:08:31.725Z,21
2018-12-09T10:09:31.371Z,21
2018-12-09T10:10:31.599Z,21
2018-12-09T10:11:31.859Z,21
2018-12-09T10:12:31.345Z,21
2018-12-09T10:13:31.412Z,21
2018-12-09T10:14:31.681Z,21
2018-12-09T10:15:31.750Z,21
2018-12-09T10:16:31.217Z,21.25
2018-12-09T10:17:31.784Z,21.25
2018-12-09T10:18:31.763Z,21.25
2018-12-09T10:19:31.395Z,21.25
2018-12-09T10:20:31.516Z,21.25
2018-12-09T10:21:31.441Z,21.25
2018-12-09T10:22:31.351Z,21.25
2018-12-09T10:23:31.196Z,21.25
2018-12-09T10:24:31.468Z,21.25
2018-12-09T10:25:31.545Z,21.25
2018-12-09T10:26:36.902Z,21.25
2018-12-09T10:27:31.662Z,21.25
2018-12-09T10:28:31.612Z,21.25
2018-12-09T10:29:31.330Z,21.25
2018-12-09T10:30:31.151Z,21.25
2018-12-09T10:31:31.256Z,21.25
2018-12-09T10:32:31.391Z,21.25
2018-12-09T10:33:31.208Z,21.25
2018-12-09T10:34:39.110Z,21.25
2018-12-09T10:35:31.417Z,21.25
2018-12-09T10:36:31.276Z,21.25
2018-12-09T10:37:31.735Z,21.25
2018-12-09T10:38:31.191Z,21.25
2018-12-09T10:39:31.168Z,21.25
2018-12-09T10:40:31.185Z,21.25
2018-12-09T10:41:31.279Z,21.25
2018-12-09T10:42:31.361Z,21.25
2018-12-09T10:43:31.346Z,21.25
2018-12-09T10:44:31.605Z,21.25
2018-12-09T10:45:31.218Z,21.25
2018-12-09T10:46:31.340Z,21.25
2018-12-09T10:47:31.191Z,21.25
2018-12-09T10:48:31.166Z,21.25
2018-12-09T10:49:31.402Z,21.25
2018-12-09T10:50:31.242Z,21.25
2018-12-09T10:51:31.397Z,21.25
2018-12-09T10:52:31.471Z,21.25
2018-12-09T10:53:31.792Z,21.25
2018-12-09T10:54:31.308Z,21.25
2018-12-09T10:55:31.352Z,21.25
2018-12-09T10:56:31.823Z,21.25
2018-12-09T10:57:31.200Z,21.25
2018-12-09T10:58:31.347Z,21.25
2018-12-09T10:59:31.201Z,21.25
2018-12-09T11:00:31.347Z,21.25
2018-12-09T11:01:31.650Z,21.25
2018-12-09T11:02:31.614Z,21.25
2018-12-09T11:03:31.507Z,21.25
2018-12-09T11:04:31.276Z,21.25
2018-12-09T11:05:31.640Z,21.25
2018-12-09T11:06:31.222Z,21.25
2018-12-09T11:07:31.369Z,21.25
2018-12-09T11:08:31.301Z,21.25
2018-12-09T11:09:31.616Z,21.25
2018-12-09T11:10:31.603Z,21.25
2018-12-09T11:11:31.323Z,21.25
2018-12-09T11:12:31.854Z,21.25
2018-12-09T11:13:31.691Z,21.25
2018-12-09T11:14:31.447Z,21.25
2018-12-09T11:15:31.856Z,21.25
2018-12-09T11:16:31.822Z,21.25
2018-12-09T11:17:31.206Z,21.25
2018-12-09T11:18:31.282Z,21.25
2018-12-09T11:19:31.779Z,21.25
2018-12-09T11:20:31.526Z,21.25
2018-12-09T11:21:31.588Z,21.25
2018-12-09T11:22:31.322Z,21.25
2018-12-09T11:23:31.677Z,21.25
2018-12-09T11:24:31.437Z,21.25
2018-12-09T11:25:31.358Z,21.25
2018-12-09T11:26:31.281Z,21.25
2018-12-09T11:27:31.221Z,21.25
2018-12-09T11:28:31.450Z,21.25
2018-12-09T11:29:31.241Z,21.25
2018-12-09T11:30:31.669Z,21.25
2018-12-09T11:31:31.307Z,21.25
2018-12-09T11:32:32.130Z,21.25
2018-12-09T11:33:31.415Z,21.25
2018-12-09T11:34:31.747Z,21.25
2018-12-09T11:35:31.137Z,21.25
2018-12-09T11:36:31.366Z,21.25
2018-12-09T11:37:31.858Z,21.25
2018-12-09T11:38:31.552Z,21.25
2018-12-09T11:39:31.378Z,21.25
2018-12-09T11:40:31.286Z,21.25
2018-12-09T11:41:31.763Z,21.25
2018-12-09T11:42:31.248Z,21.25
2018-12-09T11:43:31.672Z,21.25
2018-12-09T11:44:31.409Z,21.25
2018-12-09T11:45:31.202Z,21.25
2018-12-09T11:46:31.481Z,21.25
2018-12-09T11:47:31.470Z,21.25
2018-12-09T11:48:31.732Z,21.25
2018-12-09T11:49:31.519Z,21.25
2018-12-09T11:50:31.764Z,21.25
2018-12-09T11:51:31.477Z,21.25
2018-12-09T11:52:31.422Z,21.25
2018-12-09T11:53:31.276Z,21.25
2018-12-09T11:54:31.757Z,21.25
2018-12-09T11:55:31.595Z,21.25
2018-12-09T11:56:31.239Z,21.25
2018-12-09T11:57:31.459Z,21.25
2018-12-09T11:58:31.317Z,21.25
2018-12-09T11:59:31.725Z,21.25
2018-12-09T12:00:31.150Z,21.25
2018-12-09T12:01:31.313Z,21.25
2018-12-09T12:02:31.340Z,21.25
2018-12-09T12:03:31.224Z,21.25
2018-12-09T12:04:31.597Z,21.25
2018-12-09T12:05:31.461Z,21.25
2018-12-09T12:06:31.580Z,21.25
2018-12-09T12:07:31.263Z,21.25
2018-12-09T12:08:31.690Z,21.25
2018-12-09T12:09:32.173Z,21.25
2018-12-09T12:10:31.309Z,21.25
2018-12-09T12:11:31.117Z,21.25
2018-12-09T12:12:31.470Z,21.25
2018-12-09T12:13:31.235Z,21.25
2018-12-09T12:14:31.587Z,21.25
2018-12-09T12:15:31.455Z,21.25
2018-12-09T12:16:31.272Z,21.25
2018-12-09T12:17:31.299Z,21.25
2018-12-09T12:18:31.127Z,21.25
2018-12-09T12:19:31.323Z,21.25
2018-12-09T12:20:31.127Z,21.25
2018-12-09T12:21:31.207Z,21.25
2018-12-09T12:22:31.913Z,21.25
2018-12-09T12:23:31.245Z,21.25
2018-12-09T12:24:31.286Z,21.25
2018-12-09T12:25:31.152Z,21.25
2018-12-09T12:26:31.495Z,21.25
2018-12-09T12:27:31.354Z,21.25
2018-12-09T12:28:31.322Z,21.25
2018-12-09T12:29:31.345Z,21.25
2018-12-09T12:30:31.475Z,21.25
2018-12-09T12:31:31.536Z,21.25
2018-12-09T12:32:31.134Z,21.25
2018-12-09T12:33:31.294Z,21.25
2018-12-09T12:34:31.468Z,21.25
2018-12-09T12:35:31.355Z,21.25
2018-12-09T12:36:31.869Z,21.25
2018-12-09T12:37:31.174Z,21.25
2018-12-09T12:38:31.326Z,21.25
2018-12-09T12:39:31.177Z,21.25
2018-12-09T12:40:31.503Z,21.25
2018-12-09T12:41:32.090Z,21.25
2018-12-09T12:42:31.396Z,21.25
2018-12-09T12:43:31.754Z,21.25
2018-12-09T12:44:31.187Z,21.25
2018-12-09T12:45:31.393Z,21.25
2018-12-09T12:46:31.164Z,21.25
2018-12-09T12:47:31.289Z,21.25
2018-12-09T12:48:31.711Z,21.25
2018-12-09T12:49:31.231Z,21.25
2018-12-09T12:50:31.439Z,21.25
2018-12-09T12:51:32.098Z,21.25
2018-12-09T12:52:31.422Z,21.25
2018-12-09T12:53:31.688Z,21.25
2018-12-09T12:54:31.379Z,21.25
2018-12-09T12:55:31.502Z,21.25
2018-12-09T12:56:31.324Z,21.25
2018-12-09T12:57:31.698Z,21.25
2018-12-09T12:58:31.442Z,21.25
2018-12-09T12:59:31.274Z,21.25
2018-12-09T13:00:31.414Z,21.25
2018-12-09T13:01:31.477Z,21.25
2018-12-09T13:02:32.170Z,21.25
2018-12-09T13:03:31.104Z,21.25
2018-12-09T13:04:31.726Z,21.25
2018-12-09T13:05:31.474Z,21.25
2018-12-09T13:06:31.304Z,21.25
2018-12-09T13:07:31.170Z,21.25
2018-12-09T13:08:31.755Z,21.25
2018-12-09T13:09:31.144Z,21.25